sensor_id;sensor_type;location;lat;lon;timestamp;P1;durP1;ratioP1;P2;durP2;ratioP2
57389;SDS011;43217;52.694;6.214;2023-08-12T00:02:02;10.45;;;8.65;;
57389;SDS011;43217;52.694;6.214;2023-08-12T00:04:28;11.20;;;9.55;;
57389;SDS011;43217;52.694;6.214;2023-08-12T00:06:54;11.20;;;9.90;;
57389;SDS011;43217;52.694;6.214;2023-08-12T00:09:20;11.00;;;9.93;;
57389;SDS011;43217;52.694;6.214;2023-08-12T00:11:45;13.10;;;10.15;;
57389;SDS011;43217;52.694;6.214;2023-08-12T00:14:11;10.65;;;9.65;;
57389;SDS011;43217;52.694;6.214;2023-08-12T00:16:37;11.23;;;9.50;;
57389;SDS011;43217;52.694;6.214;2023-08-12T00:19:02;11.45;;;10.25;;
57389;SDS011;43217;52.694;6.214;2023-08-12T00:21:28;11.20;;;10.10;;
57389;SDS011;43217;52.694;6.214;2023-08-12T00:23:54;11.65;;;9.73;;
57389;SDS011;43217;52.694;6.214;2023-08-12T00:26:19;10.05;;;9.05;;
57389;SDS011;43217;52.694;6.214;2023-08-12T00:28:48;13.57;;;10.23;;
57389;SDS011;43217;52.694;6.214;2023-08-12T00:31:14;11.65;;;9.40;;
57389;SDS011;43217;52.694;6.214;2023-08-12T00:33:40;10.95;;;9.07;;
57389;SDS011;43217;52.694;6.214;2023-08-12T00:36:05;13.00;;;9.52;;
57389;SDS011;43217;52.694;6.214;2023-08-12T00:38:31;10.07;;;9.07;;
57389;SDS011;43217;52.694;6.214;2023-08-12T00:40:57;11.40;;;9.45;;
57389;SDS011;43217;52.694;6.214;2023-08-12T00:43:23;12.13;;;9.88;;
57389;SDS011;43217;52.694;6.214;2023-08-12T00:45:49;11.40;;;10.20;;
57389;SDS011;43217;52.694;6.214;2023-08-12T00:48:15;11.02;;;9.95;;
57389;SDS011;43217;52.694;6.214;2023-08-12T00:50:42;11.98;;;10.70;;
57389;SDS011;43217;52.694;6.214;2023-08-12T00:53:08;12.75;;;10.85;;
57389;SDS011;43217;52.694;6.214;2023-08-12T00:55:35;14.30;;;11.68;;
57389;SDS011;43217;52.694;6.214;2023-08-12T00:58:02;12.48;;;10.82;;
57389;SDS011;43217;52.694;6.214;2023-08-12T01:02:55;12.48;;;10.40;;
57389;SDS011;43217;52.694;6.214;2023-08-12T01:05:25;16.90;;;11.82;;
57389;SDS011;43217;52.694;6.214;2023-08-12T01:07:51;12.18;;;10.60;;
57389;SDS011;43217;52.694;6.214;2023-08-12T01:10:18;13.63;;;10.85;;
57389;SDS011;43217;52.694;6.214;2023-08-12T01:12:57;12.13;;;10.65;;
57389;SDS011;43217;52.694;6.214;2023-08-12T01:15:31;16.58;;;11.80;;
57389;SDS011;43217;52.694;6.214;2023-08-12T01:17:58;13.02;;;11.20;;
57389;SDS011;43217;52.694;6.214;2023-08-12T01:20:26;13.60;;;11.52;;
57389;SDS011;43217;52.694;6.214;2023-08-12T01:22:55;13.15;;;11.80;;
57389;SDS011;43217;52.694;6.214;2023-08-12T01:25:24;12.60;;;11.40;;
57389;SDS011;43217;52.694;6.214;2023-08-12T01:27:50;13.43;;;11.70;;
57389;SDS011;43217;52.694;6.214;2023-08-12T01:30:16;12.68;;;11.48;;
57389;SDS011;43217;52.694;6.214;2023-08-12T01:32:51;13.00;;;11.63;;
57389;SDS011;43217;52.694;6.214;2023-08-12T01:35:36;13.10;;;11.80;;
57389;SDS011;43217;52.694;6.214;2023-08-12T01:38:06;12.88;;;11.38;;
57389;SDS011;43217;52.694;6.214;2023-08-12T01:40:33;13.25;;;11.77;;
57389;SDS011;43217;52.694;6.214;2023-08-12T01:43:00;13.15;;;11.52;;
57389;SDS011;43217;52.694;6.214;2023-08-12T01:45:30;12.48;;;10.50;;
57389;SDS011;43217;52.694;6.214;2023-08-12T01:48:00;13.05;;;11.27;;
57389;SDS011;43217;52.694;6.214;2023-08-12T01:50:26;12.00;;;10.75;;
57389;SDS011;43217;52.694;6.214;2023-08-12T01:52:52;13.77;;;11.75;;
57389;SDS011;43217;52.694;6.214;2023-08-12T01:55:18;13.18;;;11.35;;
57389;SDS011;43217;52.694;6.214;2023-08-12T01:57:44;13.95;;;11.55;;
57389;SDS011;43217;52.694;6.214;2023-08-12T02:00:10;13.38;;;11.95;;
57389;SDS011;43217;52.694;6.214;2023-08-12T02:02:37;14.05;;;11.93;;
57389;SDS011;43217;52.694;6.214;2023-08-12T02:05:04;13.77;;;12.35;;
57389;SDS011;43217;52.694;6.214;2023-08-12T02:07:31;13.25;;;11.85;;
57389;SDS011;43217;52.694;6.214;2023-08-12T02:09:57;14.05;;;12.40;;
57389;SDS011;43217;52.694;6.214;2023-08-12T02:12:22;13.73;;;12.20;;
57389;SDS011;43217;52.694;6.214;2023-08-12T02:14:48;13.10;;;11.77;;
57389;SDS011;43217;52.694;6.214;2023-08-12T02:17:13;14.23;;;12.73;;
57389;SDS011;43217;52.694;6.214;2023-08-12T02:19:39;13.68;;;12.38;;
57389;SDS011;43217;52.694;6.214;2023-08-12T02:22:05;14.38;;;12.60;;
57389;SDS011;43217;52.694;6.214;2023-08-12T02:24:30;16.45;;;12.38;;
57389;SDS011;43217;52.694;6.214;2023-08-12T02:26:56;14.50;;;12.55;;
57389;SDS011;43217;52.694;6.214;2023-08-12T02:29:21;13.98;;;12.57;;
57389;SDS011;43217;52.694;6.214;2023-08-12T02:31:47;14.90;;;11.88;;
57389;SDS011;43217;52.694;6.214;2023-08-12T02:34:13;13.82;;;12.43;;
57389;SDS011;43217;52.694;6.214;2023-08-12T02:36:38;15.50;;;12.40;;
57389;SDS011;43217;52.694;6.214;2023-08-12T02:39:04;14.25;;;11.93;;
57389;SDS011;43217;52.694;6.214;2023-08-12T02:41:30;14.38;;;11.82;;
57389;SDS011;43217;52.694;6.214;2023-08-12T02:43:56;14.15;;;12.73;;
57389;SDS011;43217;52.694;6.214;2023-08-12T02:46:21;14.65;;;12.23;;
57389;SDS011;43217;52.694;6.214;2023-08-12T02:48:47;13.35;;;11.98;;
57389;SDS011;43217;52.694;6.214;2023-08-12T02:51:13;13.52;;;11.73;;
57389;SDS011;43217;52.694;6.214;2023-08-12T02:53:40;17.67;;;12.55;;
57389;SDS011;43217;52.694;6.214;2023-08-12T02:56:06;14.68;;;11.98;;
57389;SDS011;43217;52.694;6.214;2023-08-12T02:58:31;13.60;;;11.40;;
57389;SDS011;43217;52.694;6.214;2023-08-12T03:00:57;13.20;;;11.90;;
57389;SDS011;43217;52.694;6.214;2023-08-12T03:03:23;15.05;;;11.95;;
57389;SDS011;43217;52.694;6.214;2023-08-12T03:05:48;16.98;;;12.55;;
57389;SDS011;43217;52.694;6.214;2023-08-12T03:08:14;14.10;;;10.90;;
57389;SDS011;43217;52.694;6.214;2023-08-12T03:10:40;14.45;;;12.20;;
57389;SDS011;43217;52.694;6.214;2023-08-12T03:13:06;13.48;;;11.88;;
57389;SDS011;43217;52.694;6.214;2023-08-12T03:15:32;12.70;;;11.40;;
57389;SDS011;43217;52.694;6.214;2023-08-12T03:17:58;14.05;;;12.55;;
57389;SDS011;43217;52.694;6.214;2023-08-12T03:20:23;12.95;;;11.68;;
57389;SDS011;43217;52.694;6.214;2023-08-12T03:22:49;14.48;;;11.45;;
57389;SDS011;43217;52.694;6.214;2023-08-12T03:25:15;13.15;;;11.85;;
57389;SDS011;43217;52.694;6.214;2023-08-12T03:27:40;15.20;;;13.00;;
57389;SDS011;43217;52.694;6.214;2023-08-12T03:30:07;14.18;;;11.75;;
57389;SDS011;43217;52.694;6.214;2023-08-12T03:32:33;14.38;;;12.77;;
57389;SDS011;43217;52.694;6.214;2023-08-12T03:34:59;12.68;;;11.38;;
57389;SDS011;43217;52.694;6.214;2023-08-12T03:37:25;13.30;;;11.30;;
57389;SDS011;43217;52.694;6.214;2023-08-12T03:39:51;14.43;;;12.00;;
57389;SDS011;43217;52.694;6.214;2023-08-12T03:42:16;15.27;;;12.38;;
57389;SDS011;43217;52.694;6.214;2023-08-12T03:44:49;14.07;;;12.30;;
57389;SDS011;43217;52.694;6.214;2023-08-12T03:47:14;15.88;;;12.75;;
57389;SDS011;43217;52.694;6.214;2023-08-12T03:49:40;16.90;;;12.68;;
57389;SDS011;43217;52.694;6.214;2023-08-12T03:52:05;15.82;;;13.15;;
57389;SDS011;43217;52.694;6.214;2023-08-12T03:54:32;16.73;;;13.15;;
57389;SDS011;43217;52.694;6.214;2023-08-12T03:56:58;15.98;;;13.27;;
57389;SDS011;43217;52.694;6.214;2023-08-12T03:59:23;16.85;;;14.00;;
57389;SDS011;43217;52.694;6.214;2023-08-12T04:01:49;15.93;;;14.00;;
57389;SDS011;43217;52.694;6.214;2023-08-12T04:04:14;17.50;;;15.55;;
57389;SDS011;43217;52.694;6.214;2023-08-12T04:06:40;16.35;;;14.63;;
57389;SDS011;43217;52.694;6.214;2023-08-12T04:09:06;16.17;;;14.45;;
57389;SDS011;43217;52.694;6.214;2023-08-12T04:11:31;16.83;;;13.73;;
57389;SDS011;43217;52.694;6.214;2023-08-12T04:13:57;19.27;;;14.80;;
57389;SDS011;43217;52.694;6.214;2023-08-12T04:16:24;16.10;;;14.35;;
57389;SDS011;43217;52.694;6.214;2023-08-12T04:18:49;16.13;;;14.18;;
57389;SDS011;43217;52.694;6.214;2023-08-12T04:21:15;19.60;;;14.82;;
57389;SDS011;43217;52.694;6.214;2023-08-12T04:23:52;17.63;;;14.85;;
57389;SDS011;43217;52.694;6.214;2023-08-12T04:26:17;19.35;;;14.98;;
57389;SDS011;43217;52.694;6.214;2023-08-12T04:28:43;20.38;;;16.35;;
57389;SDS011;43217;52.694;6.214;2023-08-12T04:31:09;17.75;;;14.88;;
57389;SDS011;43217;52.694;6.214;2023-08-12T04:33:34;18.15;;;16.05;;
57389;SDS011;43217;52.694;6.214;2023-08-12T04:36:00;18.30;;;15.02;;
57389;SDS011;43217;52.694;6.214;2023-08-12T04:38:26;20.42;;;15.98;;
57389;SDS011;43217;52.694;6.214;2023-08-12T04:40:55;18.80;;;16.77;;
57389;SDS011;43217;52.694;6.214;2023-08-12T04:43:20;17.85;;;16.02;;
57389;SDS011;43217;52.694;6.214;2023-08-12T04:45:46;18.98;;;16.92;;
57389;SDS011;43217;52.694;6.214;2023-08-12T04:48:12;19.40;;;17.38;;
57389;SDS011;43217;52.694;6.214;2023-08-12T04:50:38;20.88;;;17.67;;
57389;SDS011;43217;52.694;6.214;2023-08-12T04:53:04;19.30;;;17.13;;
57389;SDS011;43217;52.694;6.214;2023-08-12T04:55:30;22.40;;;18.70;;
57389;SDS011;43217;52.694;6.214;2023-08-12T04:57:57;20.55;;;18.35;;
57389;SDS011;43217;52.694;6.214;2023-08-12T05:00:22;22.70;;;17.83;;
57389;SDS011;43217;52.694;6.214;2023-08-12T05:02:48;19.65;;;17.55;;
57389;SDS011;43217;52.694;6.214;2023-08-12T05:05:14;22.33;;;18.48;;
57389;SDS011;43217;52.694;6.214;2023-08-12T05:07:40;23.00;;;18.58;;
57389;SDS011;43217;52.694;6.214;2023-08-12T05:10:06;23.30;;;19.55;;
57389;SDS011;43217;52.694;6.214;2023-08-12T05:12:32;24.15;;;19.60;;
57389;SDS011;43217;52.694;6.214;2023-08-12T05:14:57;21.73;;;18.88;;
57389;SDS011;43217;52.694;6.214;2023-08-12T05:17:23;24.42;;;20.15;;
57389;SDS011;43217;52.694;6.214;2023-08-12T05:19:49;23.35;;;19.40;;
57389;SDS011;43217;52.694;6.214;2023-08-12T05:22:15;24.20;;;20.98;;
57389;SDS011;43217;52.694;6.214;2023-08-12T05:24:40;25.25;;;20.23;;
57389;SDS011;43217;52.694;6.214;2023-08-12T05:27:06;25.67;;;21.20;;
57389;SDS011;43217;52.694;6.214;2023-08-12T05:29:32;24.55;;;21.75;;
57389;SDS011;43217;52.694;6.214;2023-08-12T05:31:57;23.60;;;20.55;;
57389;SDS011;43217;52.694;6.214;2023-08-12T05:34:23;26.33;;;21.60;;
57389;SDS011;43217;52.694;6.214;2023-08-12T05:36:49;27.10;;;22.10;;
57389;SDS011;43217;52.694;6.214;2023-08-12T05:39:14;24.75;;;21.95;;
57389;SDS011;43217;52.694;6.214;2023-08-12T05:41:41;23.20;;;20.73;;
57389;SDS011;43217;52.694;6.214;2023-08-12T05:44:06;26.33;;;22.60;;
57389;SDS011;43217;52.694;6.214;2023-08-12T05:46:32;27.08;;;23.77;;
57389;SDS011;43217;52.694;6.214;2023-08-12T05:48:58;28.23;;;23.90;;
57389;SDS011;43217;52.694;6.214;2023-08-12T05:51:24;28.50;;;23.73;;
57389;SDS011;43217;52.694;6.214;2023-08-12T05:53:52;28.67;;;24.35;;
57389;SDS011;43217;52.694;6.214;2023-08-12T05:56:17;33.67;;;25.63;;
57389;SDS011;43217;52.694;6.214;2023-08-12T05:58:43;31.15;;;26.55;;
57389;SDS011;43217;52.694;6.214;2023-08-12T06:01:09;29.75;;;24.88;;
57389;SDS011;43217;52.694;6.214;2023-08-12T06:03:35;31.85;;;28.08;;
57389;SDS011;43217;52.694;6.214;2023-08-12T06:06:02;30.30;;;26.58;;
57389;SDS011;43217;52.694;6.214;2023-08-12T06:08:28;30.42;;;26.73;;
57389;SDS011;43217;52.694;6.214;2023-08-12T06:11:08;28.70;;;25.42;;
57389;SDS011;43217;52.694;6.214;2023-08-12T06:13:33;30.73;;;27.35;;
57389;SDS011;43217;52.694;6.214;2023-08-12T06:15:59;31.25;;;27.83;;
57389;SDS011;43217;52.694;6.214;2023-08-12T06:18:25;32.42;;;27.27;;
57389;SDS011;43217;52.694;6.214;2023-08-12T06:20:50;32.95;;;26.77;;
57389;SDS011;43217;52.694;6.214;2023-08-12T06:23:17;30.88;;;27.13;;
57389;SDS011;43217;52.694;6.214;2023-08-12T06:25:42;28.45;;;25.30;;
57389;SDS011;43217;52.694;6.214;2023-08-12T06:28:08;33.05;;;26.52;;
57389;SDS011;43217;52.694;6.214;2023-08-12T06:30:35;32.40;;;27.27;;
57389;SDS011;43217;52.694;6.214;2023-08-12T06:33:01;31.02;;;26.15;;
57389;SDS011;43217;52.694;6.214;2023-08-12T06:35:26;29.77;;;26.38;;
57389;SDS011;43217;52.694;6.214;2023-08-12T06:37:52;30.23;;;26.52;;
57389;SDS011;43217;52.694;6.214;2023-08-12T06:40:18;30.15;;;26.60;;
57389;SDS011;43217;52.694;6.214;2023-08-12T06:42:44;30.23;;;26.92;;
57389;SDS011;43217;52.694;6.214;2023-08-12T06:45:10;32.72;;;27.08;;
57389;SDS011;43217;52.694;6.214;2023-08-12T06:47:36;31.27;;;27.10;;
57389;SDS011;43217;52.694;6.214;2023-08-12T06:50:02;29.58;;;26.38;;
57389;SDS011;43217;52.694;6.214;2023-08-12T06:52:28;30.13;;;25.58;;
57389;SDS011;43217;52.694;6.214;2023-08-12T06:54:53;35.22;;;27.23;;
57389;SDS011;43217;52.694;6.214;2023-08-12T06:57:19;32.10;;;28.60;;
57389;SDS011;43217;52.694;6.214;2023-08-12T06:59:45;34.08;;;26.98;;
57389;SDS011;43217;52.694;6.214;2023-08-12T07:02:11;31.15;;;27.08;;
57389;SDS011;43217;52.694;6.214;2023-08-12T07:04:37;29.55;;;25.92;;
57389;SDS011;43217;52.694;6.214;2023-08-12T07:07:03;31.33;;;26.20;;
57389;SDS011;43217;52.694;6.214;2023-08-12T07:09:29;30.85;;;27.60;;
57389;SDS011;43217;52.694;6.214;2023-08-12T07:11:55;29.80;;;26.60;;
57389;SDS011;43217;52.694;6.214;2023-08-12T07:14:21;31.08;;;26.42;;
57389;SDS011;43217;52.694;6.214;2023-08-12T07:16:47;30.73;;;27.42;;
57389;SDS011;43217;52.694;6.214;2023-08-12T07:19:12;30.88;;;26.52;;
57389;SDS011;43217;52.694;6.214;2023-08-12T07:21:38;31.40;;;27.15;;
57389;SDS011;43217;52.694;6.214;2023-08-12T07:24:04;28.73;;;25.73;;
57389;SDS011;43217;52.694;6.214;2023-08-12T07:26:39;31.77;;;26.13;;
57389;SDS011;43217;52.694;6.214;2023-08-12T07:29:05;31.80;;;27.00;;
57389;SDS011;43217;52.694;6.214;2023-08-12T07:31:33;31.80;;;28.33;;
57389;SDS011;43217;52.694;6.214;2023-08-12T07:33:59;34.10;;;26.48;;
57389;SDS011;43217;52.694;6.214;2023-08-12T07:36:24;36.50;;;27.15;;
57389;SDS011;43217;52.694;6.214;2023-08-12T07:38:50;32.42;;;27.88;;
57389;SDS011;43217;52.694;6.214;2023-08-12T07:41:16;36.03;;;29.08;;
57389;SDS011;43217;52.694;6.214;2023-08-12T07:43:41;35.42;;;27.95;;
57389;SDS011;43217;52.694;6.214;2023-08-12T07:46:07;39.05;;;29.48;;
57389;SDS011;43217;52.694;6.214;2023-08-12T07:48:33;31.33;;;27.35;;
57389;SDS011;43217;52.694;6.214;2023-08-12T07:50:59;44.33;;;31.77;;
57389;SDS011;43217;52.694;6.214;2023-08-12T07:53:25;38.30;;;29.75;;
57389;SDS011;43217;52.694;6.214;2023-08-12T07:55:51;46.80;;;32.08;;
57389;SDS011;43217;52.694;6.214;2023-08-12T07:58:17;37.47;;;30.40;;
57389;SDS011;43217;52.694;6.214;2023-08-12T08:00:43;45.75;;;32.20;;
57389;SDS011;43217;52.694;6.214;2023-08-12T08:03:08;46.67;;;33.42;;
57389;SDS011;43217;52.694;6.214;2023-08-12T08:05:34;36.75;;;28.92;;
57389;SDS011;43217;52.694;6.214;2023-08-12T08:08:00;29.92;;;24.23;;
57389;SDS011;43217;52.694;6.214;2023-08-12T08:10:25;29.48;;;22.77;;
57389;SDS011;43217;52.694;6.214;2023-08-12T08:12:51;24.58;;;21.15;;
57389;SDS011;43217;52.694;6.214;2023-08-12T08:15:17;22.67;;;17.70;;
57389;SDS011;43217;52.694;6.214;2023-08-12T08:17:42;19.75;;;15.65;;
57389;SDS011;43217;52.694;6.214;2023-08-12T08:20:08;18.02;;;15.23;;
57389;SDS011;43217;52.694;6.214;2023-08-12T08:22:35;18.27;;;14.90;;
57389;SDS011;43217;52.694;6.214;2023-08-12T08:25:02;15.93;;;13.45;;
57389;SDS011;43217;52.694;6.214;2023-08-12T08:27:28;17.02;;;13.30;;
57389;SDS011;43217;52.694;6.214;2023-08-12T08:29:53;16.35;;;13.35;;
57389;SDS011;43217;52.694;6.214;2023-08-12T08:32:19;19.30;;;14.57;;
57389;SDS011;43217;52.694;6.214;2023-08-12T08:34:44;19.88;;;14.93;;
57389;SDS011;43217;52.694;6.214;2023-08-12T08:37:10;17.75;;;13.93;;
57389;SDS011;43217;52.694;6.214;2023-08-12T08:39:36;15.05;;;12.75;;
57389;SDS011;43217;52.694;6.214;2023-08-12T08:42:03;15.95;;;12.63;;
57389;SDS011;43217;52.694;6.214;2023-08-12T08:44:31;16.77;;;12.43;;
57389;SDS011;43217;52.694;6.214;2023-08-12T08:46:58;19.60;;;13.65;;
57389;SDS011;43217;52.694;6.214;2023-08-12T08:49:25;18.33;;;13.88;;
57389;SDS011;43217;52.694;6.214;2023-08-12T08:51:52;21.50;;;15.85;;
57389;SDS011;43217;52.694;6.214;2023-08-12T08:54:18;23.35;;;16.30;;
57389;SDS011;43217;52.694;6.214;2023-08-12T08:56:45;24.10;;;15.80;;
57389;SDS011;43217;52.694;6.214;2023-08-12T08:59:13;18.75;;;14.52;;
57389;SDS011;43217;52.694;6.214;2023-08-12T09:01:41;19.38;;;15.30;;
57389;SDS011;43217;52.694;6.214;2023-08-12T09:04:09;18.55;;;14.38;;
57389;SDS011;43217;52.694;6.214;2023-08-12T09:06:45;17.73;;;14.30;;
57389;SDS011;43217;52.694;6.214;2023-08-12T09:09:12;15.98;;;13.77;;
57389;SDS011;43217;52.694;6.214;2023-08-12T09:11:41;12.48;;;11.07;;
57389;SDS011;43217;52.694;6.214;2023-08-12T09:14:07;11.82;;;10.50;;
57389;SDS011;43217;52.694;6.214;2023-08-12T09:19:34;7.75;;;7.13;;
57389;SDS011;43217;52.694;6.214;2023-08-12T09:24:37;7.57;;;6.80;;
57389;SDS011;43217;52.694;6.214;2023-08-12T09:27:03;7.80;;;7.07;;
57389;SDS011;43217;52.694;6.214;2023-08-12T09:29:30;7.78;;;6.97;;
57389;SDS011;43217;52.694;6.214;2023-08-12T09:32:12;7.65;;;6.95;;
57389;SDS011;43217;52.694;6.214;2023-08-12T09:35:15;7.25;;;6.55;;
57389;SDS011;43217;52.694;6.214;2023-08-12T09:37:31;8.25;;;7.53;;
57389;SDS011;43217;52.694;6.214;2023-08-12T09:39:57;7.82;;;7.10;;
57389;SDS011;43217;52.694;6.214;2023-08-12T09:42:23;8.70;;;7.80;;
57389;SDS011;43217;52.694;6.214;2023-08-12T09:44:49;9.35;;;8.38;;
57389;SDS011;43217;52.694;6.214;2023-08-12T09:47:14;8.85;;;7.72;;
57389;SDS011;43217;52.694;6.214;2023-08-12T09:49:40;13.50;;;8.90;;
57389;SDS011;43217;52.694;6.214;2023-08-12T09:52:06;7.97;;;7.18;;
57389;SDS011;43217;52.694;6.214;2023-08-12T09:54:33;6.05;;;5.45;;
57389;SDS011;43217;52.694;6.214;2023-08-12T09:57:00;7.25;;;6.50;;
57389;SDS011;43217;52.694;6.214;2023-08-12T09:59:31;7.30;;;6.60;;
57389;SDS011;43217;52.694;6.214;2023-08-12T10:02:00;8.45;;;6.40;;
57389;SDS011;43217;52.694;6.214;2023-08-12T10:04:37;7.80;;;5.75;;
57389;SDS011;43217;52.694;6.214;2023-08-12T10:07:10;6.32;;;5.72;;
57389;SDS011;43217;52.694;6.214;2023-08-12T10:09:39;6.03;;;5.53;;
57389;SDS011;43217;52.694;6.214;2023-08-12T10:12:05;6.30;;;5.70;;
57389;SDS011;43217;52.694;6.214;2023-08-12T10:14:32;4.95;;;4.55;;
57389;SDS011;43217;52.694;6.214;2023-08-12T10:16:58;4.50;;;4.20;;
57389;SDS011;43217;52.694;6.214;2023-08-12T10:19:24;4.70;;;4.30;;
57389;SDS011;43217;52.694;6.214;2023-08-12T10:21:54;4.15;;;3.75;;
57389;SDS011;43217;52.694;6.214;2023-08-12T10:24:22;4.25;;;3.80;;
57389;SDS011;43217;52.694;6.214;2023-08-12T10:26:49;4.45;;;4.10;;
57389;SDS011;43217;52.694;6.214;2023-08-12T10:29:17;4.28;;;3.88;;
57389;SDS011;43217;52.694;6.214;2023-08-12T10:31:43;4.22;;;3.90;;
57389;SDS011;43217;52.694;6.214;2023-08-12T10:34:21;4.63;;;4.28;;
57389;SDS011;43217;52.694;6.214;2023-08-12T10:36:48;4.93;;;4.57;;
57389;SDS011;43217;52.694;6.214;2023-08-12T10:39:21;4.45;;;4.15;;
57389;SDS011;43217;52.694;6.214;2023-08-12T10:41:51;4.55;;;4.25;;
57389;SDS011;43217;52.694;6.214;2023-08-12T10:44:19;4.35;;;4.05;;
57389;SDS011;43217;52.694;6.214;2023-08-12T10:46:50;3.00;;;2.80;;
57389;SDS011;43217;52.694;6.214;2023-08-12T10:49:18;1.67;;;1.58;;
57389;SDS011;43217;52.694;6.214;2023-08-12T10:51:52;1.20;;;1.20;;
57389;SDS011;43217;52.694;6.214;2023-08-12T10:54:24;1.30;;;1.20;;
57389;SDS011;43217;52.694;6.214;2023-08-12T11:02:16;0.90;;;0.90;;
57389;SDS011;43217;52.694;6.214;2023-08-12T11:04:53;1.10;;;1.00;;
57389;SDS011;43217;52.694;6.214;2023-08-12T11:12:38;2.47;;;1.75;;
57389;SDS011;43217;52.694;6.214;2023-08-12T11:15:05;2.40;;;2.15;;
57389;SDS011;43217;52.694;6.214;2023-08-12T11:17:32;2.03;;;1.92;;
57389;SDS011;43217;52.694;6.214;2023-08-12T11:20:04;2.88;;;2.30;;
57389;SDS011;43217;52.694;6.214;2023-08-12T11:22:32;3.30;;;3.00;;
57389;SDS011;43217;52.694;6.214;2023-08-12T11:25:00;4.30;;;2.80;;
57389;SDS011;43217;52.694;6.214;2023-08-12T11:27:26;4.72;;;3.17;;
57389;SDS011;43217;52.694;6.214;2023-08-12T11:29:52;4.80;;;3.22;;
57389;SDS011;43217;52.694;6.214;2023-08-12T11:32:18;6.07;;;3.35;;
57389;SDS011;43217;52.694;6.214;2023-08-12T11:34:44;7.32;;;3.42;;
57389;SDS011;43217;52.694;6.214;2023-08-12T11:37:10;4.80;;;3.15;;
57389;SDS011;43217;52.694;6.214;2023-08-12T11:39:36;5.47;;;3.47;;
57389;SDS011;43217;52.694;6.214;2023-08-12T11:42:03;7.07;;;3.45;;
57389;SDS011;43217;52.694;6.214;2023-08-12T11:44:29;5.15;;;3.40;;
57389;SDS011;43217;52.694;6.214;2023-08-12T11:46:58;5.07;;;3.30;;
57389;SDS011;43217;52.694;6.214;2023-08-12T11:49:24;4.85;;;3.08;;
57389;SDS011;43217;52.694;6.214;2023-08-12T11:51:49;4.65;;;2.75;;
57389;SDS011;43217;52.694;6.214;2023-08-12T11:54:15;4.40;;;3.00;;
57389;SDS011;43217;52.694;6.214;2023-08-12T11:56:41;3.13;;;2.05;;
57389;SDS011;43217;52.694;6.214;2023-08-12T11:59:07;5.40;;;2.65;;
57389;SDS011;43217;52.694;6.214;2023-08-12T12:01:33;5.30;;;2.47;;
57389;SDS011;43217;52.694;6.214;2023-08-12T12:04:02;3.38;;;2.42;;
57389;SDS011;43217;52.694;6.214;2023-08-12T12:06:32;5.40;;;2.50;;
57389;SDS011;43217;52.694;6.214;2023-08-12T12:09:01;4.05;;;2.28;;
57389;SDS011;43217;52.694;6.214;2023-08-12T12:11:30;6.30;;;2.15;;
57389;SDS011;43217;52.694;6.214;2023-08-12T12:14:02;4.65;;;2.70;;
57389;SDS011;43217;52.694;6.214;2023-08-12T12:19:05;5.43;;;2.22;;
57389;SDS011;43217;52.694;6.214;2023-08-12T12:21:40;5.22;;;2.40;;
57389;SDS011;43217;52.694;6.214;2023-08-12T12:24:07;7.10;;;2.58;;
57389;SDS011;43217;52.694;6.214;2023-08-12T12:26:34;4.65;;;2.00;;
57389;SDS011;43217;52.694;6.214;2023-08-12T12:29:00;4.20;;;1.95;;
57389;SDS011;43217;52.694;6.214;2023-08-12T12:31:26;6.43;;;2.20;;
57389;SDS011;43217;52.694;6.214;2023-08-12T12:33:52;5.25;;;2.55;;
57389;SDS011;43217;52.694;6.214;2023-08-12T12:36:17;4.90;;;2.22;;
57389;SDS011;43217;52.694;6.214;2023-08-12T12:38:43;5.57;;;2.40;;
57389;SDS011;43217;52.694;6.214;2023-08-12T12:41:08;5.53;;;2.08;;
57389;SDS011;43217;52.694;6.214;2023-08-12T12:43:34;6.38;;;2.22;;
57389;SDS011;43217;52.694;6.214;2023-08-12T12:46:00;4.80;;;2.30;;
57389;SDS011;43217;52.694;6.214;2023-08-12T12:48:25;4.13;;;2.00;;
57389;SDS011;43217;52.694;6.214;2023-08-12T12:50:51;4.78;;;2.13;;
57389;SDS011;43217;52.694;6.214;2023-08-12T12:53:16;4.50;;;2.00;;
57389;SDS011;43217;52.694;6.214;2023-08-12T12:55:42;5.28;;;2.05;;
57389;SDS011;43217;52.694;6.214;2023-08-12T12:58:09;5.38;;;2.20;;
57389;SDS011;43217;52.694;6.214;2023-08-12T13:00:35;4.88;;;2.35;;
57389;SDS011;43217;52.694;6.214;2023-08-12T13:03:00;5.93;;;2.33;;
57389;SDS011;43217;52.694;6.214;2023-08-12T13:05:26;9.05;;;2.55;;
57389;SDS011;43217;52.694;6.214;2023-08-12T13:07:51;5.63;;;2.42;;
57389;SDS011;43217;52.694;6.214;2023-08-12T13:10:17;5.55;;;2.20;;
57389;SDS011;43217;52.694;6.214;2023-08-12T13:12:43;7.07;;;2.38;;
57389;SDS011;43217;52.694;6.214;2023-08-12T13:15:09;5.57;;;2.30;;
57389;SDS011;43217;52.694;6.214;2023-08-12T13:17:34;6.47;;;2.75;;
57389;SDS011;43217;52.694;6.214;2023-08-12T13:20:00;6.43;;;2.58;;
57389;SDS011;43217;52.694;6.214;2023-08-12T13:22:26;7.10;;;3.33;;
57389;SDS011;43217;52.694;6.214;2023-08-12T13:24:51;7.75;;;2.60;;
57389;SDS011;43217;52.694;6.214;2023-08-12T13:27:17;6.78;;;2.30;;
57389;SDS011;43217;52.694;6.214;2023-08-12T13:29:42;5.78;;;2.33;;
57389;SDS011;43217;52.694;6.214;2023-08-12T13:32:08;7.53;;;3.05;;
57389;SDS011;43217;52.694;6.214;2023-08-12T13:34:34;5.07;;;2.20;;
57389;SDS011;43217;52.694;6.214;2023-08-12T13:36:59;7.90;;;2.40;;
57389;SDS011;43217;52.694;6.214;2023-08-12T13:39:25;7.10;;;2.33;;
57389;SDS011;43217;52.694;6.214;2023-08-12T13:41:51;5.32;;;2.20;;
57389;SDS011;43217;52.694;6.214;2023-08-12T13:44:16;8.15;;;2.33;;
57389;SDS011;43217;52.694;6.214;2023-08-12T13:46:42;5.55;;;2.00;;
57389;SDS011;43217;52.694;6.214;2023-08-12T13:49:08;5.18;;;2.25;;
57389;SDS011;43217;52.694;6.214;2023-08-12T13:51:33;5.38;;;2.33;;
57389;SDS011;43217;52.694;6.214;2023-08-12T13:53:59;5.55;;;2.28;;
57389;SDS011;43217;52.694;6.214;2023-08-12T13:56:25;8.80;;;2.97;;
57389;SDS011;43217;52.694;6.214;2023-08-12T13:58:50;8.20;;;2.63;;
57389;SDS011;43217;52.694;6.214;2023-08-12T14:01:16;5.05;;;2.00;;
57389;SDS011;43217;52.694;6.214;2023-08-12T14:03:41;6.53;;;1.95;;
57389;SDS011;43217;52.694;6.214;2023-08-12T14:06:07;7.30;;;2.55;;
57389;SDS011;43217;52.694;6.214;2023-08-12T14:08:33;3.88;;;1.88;;
57389;SDS011;43217;52.694;6.214;2023-08-12T14:10:58;4.28;;;2.40;;
57389;SDS011;43217;52.694;6.214;2023-08-12T14:13:24;6.97;;;2.20;;
57389;SDS011;43217;52.694;6.214;2023-08-12T14:15:50;5.55;;;2.83;;
57389;SDS011;43217;52.694;6.214;2023-08-12T14:18:16;7.07;;;2.42;;
57389;SDS011;43217;52.694;6.214;2023-08-12T14:20:41;7.07;;;2.30;;
57389;SDS011;43217;52.694;6.214;2023-08-12T14:23:07;6.88;;;2.33;;
57389;SDS011;43217;52.694;6.214;2023-08-12T14:25:33;5.10;;;2.05;;
57389;SDS011;43217;52.694;6.214;2023-08-12T14:27:59;5.28;;;2.15;;
57389;SDS011;43217;52.694;6.214;2023-08-12T14:30:25;5.75;;;2.40;;
57389;SDS011;43217;52.694;6.214;2023-08-12T14:32:51;4.68;;;2.00;;
57389;SDS011;43217;52.694;6.214;2023-08-12T14:35:17;7.50;;;2.60;;
57389;SDS011;43217;52.694;6.214;2023-08-12T14:37:42;6.47;;;2.40;;
57389;SDS011;43217;52.694;6.214;2023-08-12T14:40:09;5.72;;;2.05;;
57389;SDS011;43217;52.694;6.214;2023-08-12T14:42:35;6.63;;;2.65;;
57389;SDS011;43217;52.694;6.214;2023-08-12T14:45:01;6.30;;;2.35;;
57389;SDS011;43217;52.694;6.214;2023-08-12T14:47:27;6.45;;;2.47;;
57389;SDS011;43217;52.694;6.214;2023-08-12T14:49:52;6.35;;;1.90;;